Time;durP1;ratioP1;P1;durP2;ratioP2;P2;SDS_P1;SDS_P2;PMS_P1;PMS_P2;Temp;Humidity;BMP_temperature;BMP_pressure;BME280_temperature;BME280_humidity;BME280_pressure;Samples;Min_cycle;Max_cycle;Signal;HPM_P1;HPM_P2
2023/06/18 00:01:18;;;;;;;5.33;4.83;;;;;13.40;96829.00;;;;5019828;28;20201;-74
2023/06/18 00:04:07;;;;;;;6.57;4.77;;;;;13.10;96833.00;;;;5024564;28;20795;-74
2023/06/18 00:06:57;;;;;;;5.10;4.60;;;;;13.60;96833.00;;;;5018742;28;20288;-74
2023/06/18 00:09:46;;;;;;;5.27;4.77;;;;;13.80;96833.00;;;;5024348;28;21010;-74
2023/06/18 00:12:36;;;;;;;7.50;4.47;;;;;13.90;96828.00;;;;5018357;28;20212;-74
2023/06/18 00:15:25;;;;;;;7.30;5.10;;;;;13.80;96823.00;;;;5025428;28;20209;-74
2023/06/18 00:18:15;;;;;;;10.57;5.33;;;;;13.60;96824.00;;;;5021852;28;20233;-74
2023/06/18 00:21:07;;;;;;;6.40;4.90;;;;;13.50;96817.00;;;;5021135;28;20587;-74
2023/06/18 00:23:57;;;;;;;6.60;4.43;;;;;13.30;96821.00;;;;5019481;28;20222;-73
2023/06/18 00:26:46;;;;;;;6.43;4.93;;;;;13.10;96816.00;;;;5019412;28;20296;-74
2023/06/18 00:29:36;;;;;;;8.53;4.93;;;;;13.10;96819.00;;;;5020649;28;20224;-72
2023/06/18 00:32:26;;;;;;;6.33;5.70;;;;;13.50;96818.00;;;;5018514;28;20205;-70
2023/06/18 00:35:15;;;;;;;5.53;5.03;;;;;13.50;96816.00;;;;5022709;28;20209;-70
2023/06/18 00:38:05;;;;;;;6.73;5.47;;;;;13.00;96819.00;;;;5016075;28;20231;-72
2023/06/18 00:40:54;;;;;;;5.80;5.10;;;;;12.70;96812.00;;;;5028430;28;20213;-72
2023/06/18 00:43:43;;;;;;;6.97;5.37;;;;;12.80;96819.00;;;;5023881;28;20202;-72
2023/06/18 00:46:35;;;;;;;7.37;4.77;;;;;13.20;96818.00;;;;5026301;28;20263;-73
2023/06/18 00:49:24;;;;;;;5.87;5.00;;;;;13.40;96811.00;;;;5021915;28;20235;-73
2023/06/18 00:52:14;;;;;;;6.40;5.20;;;;;13.30;96810.00;;;;5016971;28;20201;-73
2023/06/18 00:55:03;;;;;;;10.93;4.80;;;;;13.50;96809.00;;;;5018664;28;20741;-73
2023/06/18 00:57:59;;;;;;;7.30;5.23;;;;;13.40;96816.00;;;;5025190;28;20212;-73
2023/06/18 01:00:48;;;;;;;7.20;5.43;;;;;13.10;96811.00;;;;5019472;28;20749;-73
2023/06/18 01:03:39;;;;;;;7.63;5.23;;;;;12.90;96801.00;;;;5022392;28;20212;-73
2023/06/18 01:06:28;;;;;;;8.13;6.63;;;;;13.00;96797.00;;;;5023647;28;20254;-73
2023/06/18 01:09:19;;;;;;;6.53;4.90;;;;;12.90;96794.00;;;;5019448;28;20221;-74
2023/06/18 01:12:09;;;;;;;7.50;4.93;;;;;12.50;96785.00;;;;5018361;28;20215;-73
2023/06/18 01:14:58;;;;;;;7.80;5.73;;;;;12.80;96786.00;;;;5016349;28;20274;-74
2023/06/18 01:17:48;;;;;;;7.33;5.40;;;;;12.60;96794.00;;;;5019956;28;20228;-74
2023/06/18 01:20:41;;;;;;;6.43;5.80;;;;;12.90;96794.00;;;;5025073;28;20198;-74
2023/06/18 01:23:32;;;;;;;8.07;5.43;;;;;12.30;96783.00;;;;5025197;28;20271;-72
2023/06/18 01:26:21;;;;;;;5.70;5.20;;;;;12.40;96782.00;;;;5024651;28;20205;-74
2023/06/18 01:29:12;;;;;;;7.23;5.93;;;;;12.30;96784.00;;;;5020113;28;20229;-73
2023/06/18 01:32:01;;;;;;;6.07;5.47;;;;;12.30;96781.00;;;;5025428;28;20198;-73
2023/06/18 01:34:53;;;;;;;8.77;5.90;;;;;12.50;96785.00;;;;5030777;28;20209;-74
2023/06/18 01:38:11;;;;;;;6.43;5.80;;;;;12.40;96787.00;;;;5021985;28;20209;-73
2023/06/18 01:41:06;;;;;;;6.50;5.70;;;;;12.60;96776.00;;;;5025532;28;20208;-74
2023/06/18 01:43:58;;;;;;;6.90;5.33;;;;;12.90;96782.00;;;;5022881;28;20198;-74
2023/06/18 01:46:50;;;;;;;7.13;6.43;;;;;12.90;96782.00;;;;5020590;28;20233;-74
2023/06/18 01:49:40;;;;;;;7.83;5.27;;;;;12.50;96778.00;;;;5025827;28;20704;-74
2023/06/18 01:52:32;;;;;;;10.30;5.35;;;;;12.10;96798.00;;;;5023096;28;20711;-74
2023/06/18 01:55:23;;;;;;;7.33;5.93;;;;;12.30;96784.00;;;;5018253;28;20209;-74
2023/06/18 01:58:13;;;;;;;5.40;4.80;;;;;12.60;96789.00;;;;5016652;28;20225;-74
2023/06/18 02:01:02;;;;;;;7.17;5.80;;;;;12.70;96799.00;;;;5028604;28;20213;-74
2023/06/18 02:03:51;;;;;;;14.17;5.87;;;;;12.60;96790.00;;;;5028285;28;20206;-75
2023/06/18 02:06:40;;;;;;;8.07;5.97;;;;;12.30;96792.00;;;;5014054;28;20287;-75
2023/06/18 02:09:30;;;;;;;6.30;5.47;;;;;12.30;96789.00;;;;5019358;28;20604;-75
2023/06/18 02:12:21;;;;;;;5.53;5.03;;;;;12.40;96793.00;;;;5021252;28;20204;-75
2023/06/18 02:15:11;;;;;;;6.20;5.43;;;;;12.60;96793.00;;;;5021876;28;20213;-74
2023/06/18 02:18:00;;;;;;;6.97;5.97;;;;;12.70;96790.00;;;;5028765;28;20732;-75
2023/06/18 02:20:50;;;;;;;7.60;6.23;;;;;12.40;96781.00;;;;5029408;28;20209;-74
2023/06/18 02:23:39;;;;;;;8.23;5.77;;;;;12.10;96788.00;;;;5028734;28;20209;-74
2023/06/18 02:26:28;;;;;;;6.97;5.73;;;;;12.30;96786.00;;;;5019700;28;20217;-74
2023/06/18 02:29:19;;;;;;;8.80;5.67;;;;;12.10;96794.00;;;;5030025;28;20225;-75
2023/06/18 02:32:08;;;;;;;6.17;5.40;;;;;11.40;96792.00;;;;5016118;28;20217;-72
2023/06/18 02:34:57;;;;;;;6.37;5.60;;;;;11.60;96802.00;;;;5026686;28;20220;-70
2023/06/18 02:37:46;;;;;;;7.00;6.20;;;;;11.80;96792.00;;;;5023470;28;20206;-71
2023/06/18 02:40:36;;;;;;;11.60;7.20;;;;;11.70;96796.00;;;;5019062;28;20407;-74
2023/06/18 02:43:25;;;;;;;9.03;6.33;;;;;11.70;96802.00;;;;5025385;28;20197;-74
2023/06/18 02:46:16;;;;;;;6.30;5.27;;;;;11.80;96804.00;;;;5018996;28;21147;-75
2023/06/18 02:49:05;;;;;;;9.07;6.77;;;;;11.70;96808.00;;;;5027754;23;20709;-86
2023/06/18 02:51:54;;;;;;;6.80;6.03;;;;;11.70;96793.00;;;;5032974;28;20206;-88
2023/06/18 02:54:44;;;;;;;8.50;6.87;;;;;11.70;96806.00;;;;5036136;28;20266;-87
2023/06/18 02:57:33;;;;;;;10.13;6.23;;;;;11.50;96800.00;;;;5028136;28;20688;-86
2023/06/18 03:00:22;;;;;;;9.53;5.90;;;;;11.40;96794.00;;;;5010186;28;20268;-86
2023/06/18 03:03:14;;;;;;;11.93;7.17;;;;;11.90;96796.00;;;;5015003;28;20198;-87
2023/06/18 03:06:04;;;;;;;6.97;5.93;;;;;11.80;96795.00;;;;5010599;28;20216;-85
2023/06/18 03:08:53;;;;;;;6.97;5.30;;;;;11.10;96796.00;;;;5012045;28;20598;-86
2023/06/18 03:11:42;;;;;;;6.50;5.60;;;;;11.30;96798.00;;;;5013638;28;20206;-86
2023/06/18 03:14:31;;;;;;;6.37;5.63;;;;;12.00;96804.00;;;;5010168;28;20210;-87
2023/06/18 03:17:21;;;;;;;9.13;6.20;;;;;12.10;96797.00;;;;5010825;28;20206;-87
2023/06/18 03:20:13;;;;;;;9.33;6.53;;;;;11.90;96796.00;;;;5010461;28;20233;-86
2023/06/18 03:23:02;;;;;;;7.87;6.97;;;;;11.50;96795.00;;;;5007476;28;20606;-87
2023/06/18 03:25:51;;;;;;;7.53;5.47;;;;;11.60;96800.00;;;;5001977;28;20701;-85
2023/06/18 03:28:40;;;;;;;9.13;6.13;;;;;11.60;96801.00;;;;5004832;28;20222;-86
2023/06/18 03:31:30;;;;;;;10.43;6.80;;;;;11.70;96796.00;;;;5006445;28;20194;-86
2023/06/18 03:34:20;;;;;;;7.47;6.67;;;;;11.90;96804.00;;;;5013292;28;20209;-86
2023/06/18 03:37:11;;;;;;;7.20;6.43;;;;;11.40;96797.00;;;;5012808;28;20198;-87
2023/06/18 03:40:03;;;;;;;8.07;6.60;;;;;11.80;96800.00;;;;5004173;28;20600;-87
2023/06/18 03:42:52;;;;;;;6.43;5.43;;;;;11.20;96807.00;;;;5012959;28;20213;-87
2023/06/18 03:45:41;;;;;;;8.13;6.67;;;;;11.70;96796.00;;;;5010093;28;20210;-87
2023/06/18 03:48:30;;;;;;;8.67;6.83;;;;;12.10;96800.00;;;;5003348;28;20297;-88
2023/06/18 03:51:20;;;;;;;7.23;6.40;;;;;11.40;96805.00;;;;5003130;28;20221;-85
2023/06/18 03:54:10;;;;;;;6.77;5.73;;;;;10.90;96808.00;;;;5007405;28;20277;-85
2023/06/18 03:57:00;;;;;;;7.13;5.60;;;;;11.30;96804.00;;;;5005633;28;20199;-83
2023/06/18 03:59:51;;;;;;;7.73;6.40;;;;;11.30;96813.00;;;;5004577;28;20230;-84
2023/06/18 04:02:41;;;;;;;7.80;6.70;;;;;11.20;96806.00;;;;5011684;28;20209;-88
2023/06/18 04:05:30;;;;;;;8.00;6.60;;;;;11.50;96800.00;;;;5005781;28;20194;-87
2023/06/18 04:08:19;;;;;;;8.50;7.13;;;;;11.60;96801.00;;;;5015302;28;20222;-85
2023/06/18 04:11:09;;;;;;;6.13;5.53;;;;;11.60;96792.00;;;;5005129;28;20292;-84
2023/06/18 04:13:59;;;;;;;7.23;5.83;;;;;11.70;96805.00;;;;5010020;28;20206;-85
2023/06/18 04:16:48;;;;;;;7.17;6.47;;;;;11.90;96807.00;;;;5014519;28;20277;-84
2023/06/18 04:19:37;;;;;;;7.27;6.57;;;;;12.00;96797.00;;;;5009528;28;20292;-86
2023/06/18 04:22:26;;;;;;;6.83;6.03;;;;;12.20;96810.00;;;;5006663;28;20712;-86
2023/06/18 04:25:15;;;;;;;6.70;5.73;;;;;12.10;96809.00;;;;5005639;28;20246;-88
2023/06/18 04:28:06;;;;;;;7.00;6.00;;;;;12.50;96805.00;;;;5004798;28;20254;-88
2023/06/18 04:30:55;;;;;;;7.60;6.23;;;;;13.00;96811.00;;;;5007360;28;20261;-84
2023/06/18 04:33:45;;;;;;;6.90;5.80;;;;;12.80;96801.00;;;;5012188;28;20218;-86
2023/06/18 04:36:36;;;;;;;10.70;5.70;;;;;12.30;96805.00;;;;5003699;28;20308;-83
2023/06/18 04:39:25;;;;;;;6.60;5.73;;;;;12.50;96803.00;;;;4995720;28;20727;-86
2023/06/18 04:42:15;;;;;;;9.03;6.40;;;;;13.00;96808.00;;;;5008388;28;20210;-86
2023/06/18 04:45:08;;;;;;;6.40;5.80;;;;;13.30;96807.00;;;;5005435;28;20202;-85
2023/06/18 04:47:57;;;;;;;8.83;6.47;;;;;13.30;96799.00;;;;5013265;28;20214;-87
2023/06/18 04:50:48;;;;;;;9.13;6.47;;;;;13.00;96800.00;;;;4999641;28;20199;-85
2023/06/18 04:53:37;;;;;;;10.33;6.43;;;;;13.20;96802.00;;;;5009382;28;20263;-87
2023/06/18 04:56:27;;;;;;;9.00;6.63;;;;;13.60;96803.00;;;;5011644;28;21008;-87
2023/06/18 04:59:16;;;;;;;7.40;6.57;;;;;14.00;96801.00;;;;5012161;28;20834;-88
2023/06/18 05:02:08;;;;;;;7.40;6.00;;;;;14.20;96805.00;;;;5013642;28;20206;-87
2023/06/18 05:04:57;;;;;;;5.67;4.73;;;;;14.30;96803.00;;;;5005671;28;20712;-85
2023/06/18 05:07:46;;;;;;;7.00;6.00;;;;;14.30;96799.00;;;;5010535;28;20693;-87
2023/06/18 05:10:35;;;;;;;6.60;6.00;;;;;14.40;96803.00;;;;5014491;28;20202;-84
2023/06/18 05:13:25;;;;;;;7.37;5.90;;;;;14.50;96805.00;;;;5004595;28;20686;-83
2023/06/18 05:16:14;;;;;;;7.90;5.50;;;;;14.90;96810.00;;;;5007504;28;20627;-86
2023/06/18 05:19:05;;;;;;;7.97;6.10;;;;;14.90;96803.00;;;;5015907;28;20272;-87
2023/06/18 05:21:54;;;;;;;8.17;6.40;;;;;15.30;96804.00;;;;5013659;28;20237;-88
2023/06/18 05:24:43;;;;;;;7.27;5.27;;;;;15.30;96800.00;;;;5014229;28;20206;-86
2023/06/18 05:27:33;;;;;;;8.73;6.80;;;;;15.70;96809.00;;;;5014861;28;20206;-88
2023/06/18 05:30:22;;;;;;;7.07;6.37;;;;;16.30;96811.00;;;;5016025;28;20198;-87
2023/06/18 05:33:11;;;;;;;8.43;6.10;;;;;16.30;96809.00;;;;5012906;28;20203;-87
2023/06/18 05:36:02;;;;;;;9.47;7.43;;;;;16.50;96811.00;;;;5012654;28;20228;-87
2023/06/18 05:38:52;;;;;;;8.90;6.57;;;;;16.50;96805.00;;;;5016016;28;20248;-87
2023/06/18 05:41:41;;;;;;;9.00;7.20;;;;;17.00;96815.00;;;;5015925;28;20693;-87
2023/06/18 05:44:30;;;;;;;10.00;6.27;;;;;17.40;96821.00;;;;5012140;28;20205;-87
2023/06/18 05:47:19;;;;;;;8.37;6.53;;;;;17.50;96826.00;;;;5011009;28;20201;-87
2023/06/18 05:50:09;;;;;;;8.37;6.53;;;;;17.70;96817.00;;;;5013676;28;20260;-85
2023/06/18 05:53:00;;;;;;;8.20;7.00;;;;;18.10;96814.00;;;;5012013;28;20268;-84
2023/06/18 05:55:49;;;;;;;8.77;6.13;;;;;18.00;96818.00;;;;5009979;28;20209;-87
2023/06/18 05:58:38;;;;;;;7.67;6.70;;;;;18.40;96818.00;;;;5013850;28;20221;-85
2023/06/18 06:01:27;;;;;;;11.47;7.33;;;;;18.50;96814.00;;;;5011079;28;20229;-87
2023/06/18 06:04:16;;;;;;;6.77;6.07;;;;;18.50;96812.00;;;;5013908;28;20225;-86
2023/06/18 06:07:06;;;;;;;8.17;6.33;;;;;19.00;96811.00;;;;5014631;28;20206;-86
2023/06/18 06:09:56;;;;;;;7.53;6.83;;;;;18.90;96815.00;;;;5011956;28;20241;-84
2023/06/18 06:12:46;;;;;;;8.83;6.20;;;;;19.20;96804.00;;;;5010143;28;20663;-84
2023/06/18 06:15:35;;;;;;;7.67;6.17;;;;;19.10;96808.00;;;;5012035;28;20580;-86
2023/06/18 06:18:24;;;;;;;9.57;7.03;;;;;19.20;96809.00;;;;5011071;28;20284;-85
2023/06/18 06:21:13;;;;;;;7.33;5.83;;;;;19.50;96814.00;;;;5010353;28;20230;-85
2023/06/18 06:24:02;;;;;;;8.80;6.50;;;;;19.60;96818.00;;;;5013789;28;20584;-87
2023/06/18 06:26:53;;;;;;;7.40;5.83;;;;;19.70;96821.00;;;;5005494;28;20206;-87
2023/06/18 06:29:42;;;;;;;13.23;6.10;;;;;20.30;96821.00;;;;5012288;28;20252;-85
2023/06/18 06:32:31;;;;;;;6.53;5.80;;;;;19.90;96826.00;;;;5011164;28;20209;-84
2023/06/18 06:35:20;;;;;;;7.10;5.77;;;;;20.20;96829.00;;;;5010948;28;20253;-83
2023/06/18 06:38:09;;;;;;;9.27;5.80;;;;;20.30;96826.00;;;;5013700;28;20230;-87
2023/06/18 06:40:58;;;;;;;8.30;6.90;;;;;20.70;96834.00;;;;5009282;28;20257;-82
2023/06/18 06:43:49;;;;;;;9.60;6.63;;;;;20.80;96825.00;;;;5010070;28;20228;-84
2023/06/18 06:46:38;;;;;;;6.93;6.23;;;;;21.10;96817.00;;;;5015367;28;20206;-87
2023/06/18 06:49:27;;;;;;;6.40;5.80;;;;;21.20;96813.00;;;;5010936;28;20237;-87
2023/06/18 06:52:16;;;;;;;8.40;5.77;;;;;21.10;96819.00;;;;5010635;28;20206;-84
2023/06/18 06:55:06;;;;;;;6.30;5.67;;;;;21.30;96817.00;;;;5007342;28;20203;-87
2023/06/18 06:57:56;;;;;;;7.53;6.20;;;;;21.60;96814.00;;;;5007190;28;20213;-85
2023/06/18 07:00:46;;;;;;;7.73;5.90;;;;;21.70;96821.00;;;;5009642;28;20205;-87
2023/06/18 07:03:35;;;;;;;8.33;6.37;;;;;22.10;96818.00;;;;4997508;28;20254;-86
2023/06/18 07:06:25;;;;;;;7.03;6.37;;;;;22.00;96823.00;;;;5011578;28;20211;-86
2023/06/18 07:09:14;;;;;;;7.77;6.53;;;;;21.50;96809.00;;;;5010226;28;20659;-87
2023/06/18 07:12:03;;;;;;;7.40;5.73;;;;;22.00;96806.00;;;;5012428;28;20203;-86
2023/06/18 07:14:52;;;;;;;8.43;6.87;;;;;22.30;96808.00;;;;5008689;28;20832;-87
2023/06/18 07:17:43;;;;;;;7.17;5.87;;;;;22.30;96812.00;;;;5008438;28;20198;-86
2023/06/18 07:20:32;;;;;;;8.23;6.43;;;;;22.90;96801.00;;;;5008280;28;20202;-86
2023/06/18 07:23:22;;;;;;;6.40;5.77;;;;;23.10;96813.00;;;;5014945;28;20209;-87
2023/06/18 07:26:12;;;;;;;7.27;5.97;;;;;22.90;96805.00;;;;5018264;28;20217;-88
2023/06/18 07:29:01;;;;;;;7.80;5.87;;;;;23.70;96813.00;;;;5008418;28;20226;-88
2023/06/18 07:31:51;;;;;;;10.53;5.87;;;;;24.00;96805.00;;;;5004815;28;20640;-85
2023/06/18 07:34:41;;;;;;;5.97;5.30;;;;;24.30;96805.00;;;;5007193;28;20203;-86
2023/06/18 07:37:30;;;;;;;7.10;6.10;;;;;24.70;96808.00;;;;5012049;28;20620;-86
2023/06/18 07:40:20;;;;;;;8.53;5.57;;;;;24.60;96803.00;;;;5012370;28;20209;-85
2023/06/18 07:43:09;;;;;;;6.63;6.03;;;;;24.90;96796.00;;;;5000877;28;20292;-84
2023/06/18 07:45:58;;;;;;;7.37;6.00;;;;;24.90;96797.00;;;;5013739;28;20206;-84
2023/06/18 07:48:48;;;;;;;6.37;5.40;;;;;25.10;96799.00;;;;5009479;28;20238;-87
2023/06/18 07:51:40;;;;;;;5.43;4.87;;;;;25.20;96796.00;;;;5009286;28;20677;-84
2023/06/18 07:54:29;;;;;;;7.80;5.37;;;;;25.60;96790.00;;;;5013315;28;20292;-84
2023/06/18 07:57:18;;;;;;;6.83;5.27;;;;;25.70;96790.00;;;;5008525;28;20202;-86
2023/06/18 08:00:09;;;;;;;5.93;5.30;;;;;25.70;96783.00;;;;5003596;28;20226;-86
2023/06/18 08:02:58;;;;;;;6.77;6.03;;;;;26.00;96791.00;;;;4998813;28;20309;-86
2023/06/18 08:05:47;;;;;;;6.13;5.50;;;;;26.30;96783.00;;;;5009709;28;20214;-85
2023/06/18 08:08:37;;;;;;;6.63;5.43;;;;;26.30;96794.00;;;;5004644;28;20694;-87
2023/06/18 08:11:27;;;;;;;6.57;5.87;;;;;26.50;96792.00;;;;5008475;28;20209;-88
2023/06/18 08:14:16;;;;;;;6.20;5.67;;;;;26.60;96793.00;;;;5005438;28;20590;-87
2023/06/18 08:17:05;;;;;;;6.07;5.47;;;;;27.00;96796.00;;;;5007662;28;20214;-89
2023/06/18 08:19:54;;;;;;;6.67;5.97;;;;;27.30;96798.00;;;;5007713;28;20229;-86
2023/06/18 08:22:43;;;;;;;8.47;5.90;;;;;27.40;96785.00;;;;4997817;28;20226;-86
2023/06/18 08:25:34;;;;;;;7.73;5.30;;;;;27.40;96789.00;;;;5003102;28;20202;-87
2023/06/18 08:28:23;;;;;;;6.50;5.60;;;;;27.70;96790.00;;;;5000936;28;20649;-87
2023/06/18 08:31:12;;;;;;;7.83;5.30;;;;;27.50;96776.00;;;;5002509;28;20206;-87
2023/06/18 08:34:02;;;;;;;6.67;5.73;;;;;27.60;96779.00;;;;5004757;28;20779;-87
2023/06/18 08:36:51;;;;;;;7.13;5.50;;;;;28.10;96785.00;;;;5007692;28;20284;-88
2023/06/18 08:39:41;;;;;;;8.00;5.40;;;;;28.20;96779.00;;;;5001988;28;20654;-86
2023/06/18 08:42:31;;;;;;;9.00;5.80;;;;;28.50;96773.00;;;;5001811;28;20222;-85
2023/06/18 08:45:21;;;;;;;6.23;5.63;;;;;28.80;96765.00;;;;5011909;28;20212;-86
2023/06/18 08:48:11;;;;;;;6.67;5.80;;;;;28.90;96768.00;;;;5002769;28;20228;-87
2023/06/18 08:51:08;;;;;;;9.17;5.63;;;;;28.60;96768.00;;;;5008171;28;20208;-88
2023/06/18 08:54:05;;;;;;;5.10;4.60;;;;;29.00;96761.00;;;;5009413;28;20204;-86
2023/06/18 08:56:57;;;;;;;8.07;6.60;;;;;29.30;96769.00;;;;5004815;28;20220;-86
2023/06/18 08:59:48;;;;;;;7.53;5.10;;;;;29.10;96757.00;;;;5005091;28;20225;-87
2023/06/18 09:02:38;;;;;;;7.27;5.93;;;;;29.30;96756.00;;;;5009298;28;20232;-88
2023/06/18 09:05:27;;;;;;;6.37;5.60;;;;;30.00;96758.00;;;;5002283;28;20230;-87
2023/06/18 09:08:17;;;;;;;8.03;5.03;;;;;30.20;96754.00;;;;5000189;28;20699;-88
2023/06/18 09:11:07;;;;;;;5.67;5.13;;;;;30.10;96760.00;;;;5009580;28;20223;-88
2023/06/18 09:13:57;;;;;;;5.90;5.13;;;;;30.70;96761.00;;;;5009558;28;20211;-86
2023/06/18 09:16:47;;;;;;;6.23;4.57;;;;;31.10;96752.00;;;;5006396;28;20244;-88
2023/06/18 09:19:37;;;;;;;4.87;4.40;;;;;31.00;96750.00;;;;5013166;28;20224;-88
2023/06/18 09:22:26;;;;;;;8.00;5.20;;;;;31.30;96743.00;;;;5010900;28;20726;-88
2023/06/18 09:25:20;;;;;;;6.27;4.70;;;;;31.20;96740.00;;;;5002502;28;20217;-88
2023/06/18 09:28:09;;;;;;;6.13;5.03;;;;;30.80;96748.00;;;;4997984;28;20229;-87
2023/06/18 09:31:00;;;;;;;5.97;4.87;;;;;30.40;96746.00;;;;5003104;28;20542;-88
2023/06/18 09:33:51;;;;;;;5.13;4.63;;;;;30.30;96744.00;;;;5012314;28;20207;-88
2023/06/18 09:36:41;;;;;;;5.47;4.87;;;;;29.70;96743.00;;;;5003335;28;20212;-88
2023/06/18 09:39:31;;;;;;;5.37;4.50;;;;;30.90;96742.00;;;;5001910;28;20428;-87
2023/06/18 09:42:29;;;;;;;4.90;4.40;;;;;31.40;96735.00;;;;5006815;28;20233;-87
2023/06/18 09:45:20;;;;;;;5.13;4.63;;;;;31.00;96720.00;;;;5010742;28;20232;-89
2023/06/18 09:48:09;;;;;;;6.57;4.33;;;;;32.00;96723.00;;;;5008894;28;20243;-87
2023/06/18 09:51:00;;;;;;;5.83;4.47;;;;;32.60;96723.00;;;;5011010;28;20214;-88
2023/06/18 09:53:56;;;;;;;6.23;5.53;;;;;33.10;96725.00;;;;5003691;28;20693;-88
2023/06/18 09:56:57;;;;;;;4.90;4.23;;;;;32.80;96723.00;;;;5002620;28;20209;-88
2023/06/18 09:59:47;;;;;;;6.93;4.50;;;;;32.30;96718.00;;;;5008612;28;20221;-88
2023/06/18 10:02:39;;;;;;;8.10;5.60;;;;;33.40;96717.00;;;;5009896;28;20236;-90
2023/06/18 10:05:28;;;;;;;7.00;5.23;;;;;33.20;96714.00;;;;5000702;28;20703;-88
2023/06/18 10:08:19;;;;;;;7.63;4.97;;;;;33.20;96719.00;;;;5004302;28;20697;-90
2023/06/18 10:11:10;;;;;;;6.15;4.60;;;;;33.70;96720.00;;;;5005072;28;20766;-89
2023/06/18 10:14:05;;;;;;;6.65;5.15;;;30.40;55.60;33.10;96718.00;;;;5003155;28;20198;-88
2023/06/18 10:17:00;;;;;;;6.10;5.50;;;30.30;54.50;31.80;96721.00;;;;5009737;28;20292;-90
2023/06/18 10:20:04;;;;;;;7.32;5.22;;;29.80;52.10;31.60;96714.00;;;;5004637;28;20269;-88
2023/06/18 10:22:58;;;;;;;6.65;5.15;;;29.70;53.30;33.50;96714.00;;;;5007127;28;20278;-89
2023/06/18 10:25:49;;;;;;;5.03;4.53;;;29.90;55.40;32.60;96706.00;;;;5004010;28;20198;-88
2023/06/18 10:28:46;;;;;;;6.75;4.93;;;30.10;53.80;31.60;96705.00;;;;5002665;28;20225;-88
2023/06/18 10:31:35;;;;;;;7.47;4.53;;;29.80;54.50;32.30;96709.00;;;;5001660;28;20209;-88
2023/06/18 10:34:26;;;;;;;6.13;5.03;;;29.70;57.80;33.00;96745.00;;;;4998532;28;20202;-88
2023/06/18 10:37:22;;;;;;;9.55;5.60;;;29.90;54.30;33.20;96692.00;;;;5004025;28;20275;-89
2023/06/18 10:40:13;;;;;;;9.02;5.28;;;30.00;55.00;34.00;96685.00;;;;5011075;28;20629;-88
2023/06/18 10:43:09;;;;;;;6.10;5.47;;;30.30;55.00;34.70;96689.00;;;;4996645;28;20239;-89
2023/06/18 10:46:20;;;;;;;6.95;5.38;;;30.80;54.40;34.90;96694.00;;;;5007680;28;20200;-88
2023/06/18 10:49:19;;;;;;;5.40;4.88;;;31.20;54.20;34.90;96678.00;;;;5007110;28;20236;-90
2023/06/18 10:52:25;;;;;;;5.68;5.03;;;31.30;53.80;34.20;96695.00;;;;5006341;28;20209;-89
2023/06/18 10:55:30;;;;;;;5.93;5.07;;;31.40;51.40;34.70;96695.00;;;;5006200;28;20216;-91
2023/06/18 10:58:33;;;;;;;9.98;6.07;;;31.40;52.90;34.30;96732.00;;;;4996851;28;20976;-91
2023/06/18 11:01:26;;;;;;;6.20;5.60;;;31.80;53.30;33.80;96679.00;;;;5010328;28;20200;-90
2023/06/18 11:04:19;;;;;;;6.50;5.75;;;31.10;52.70;34.10;96673.00;;;;5007455;28;20217;-88
2023/06/18 11:07:23;;;;;;;5.30;4.80;;;31.10;53.60;34.60;96677.00;;;;5009139;28;20286;-88
2023/06/18 11:10:12;;;;;;;7.57;6.75;;;31.20;53.20;35.60;96670.00;;;;5004936;28;20215;-87
2023/06/18 11:13:03;;;;;;;6.72;5.50;;;31.50;53.90;36.00;96668.00;;;;5008807;28;20226;-88
2023/06/18 11:16:00;;;;;;;5.63;5.07;;;31.90;53.90;36.20;96670.00;;;;5007265;28;20573;-89
2023/06/18 11:18:53;;;;;;;5.80;5.07;;;32.30;53.00;36.20;96657.00;;;;5003557;28;20233;-88
2023/06/18 11:21:46;;;;;;;6.65;5.70;;;32.40;51.70;36.80;96656.00;;;;5005405;28;20232;-89
2023/06/18 11:24:35;;;;;;;5.20;4.70;;;32.80;51.80;37.50;96655.00;;;;5007090;28;20210;-89
2023/06/18 11:27:26;;;;;;;7.95;4.68;;;33.10;51.70;36.40;96724.00;;;;5007614;28;20229;-88
2023/06/18 11:30:18;;;;;;;5.88;5.30;;;33.10;51.60;35.90;96646.00;;;;5010635;28;20241;-88
2023/06/18 11:33:09;;;;;;;9.20;5.00;;;32.90;51.90;36.30;96710.00;;;;5009461;28;20206;-87
2023/06/18 11:36:09;;;;;;;7.40;5.50;;;32.90;52.60;32.00;96713.00;;;;4998272;28;20292;-87
2023/06/18 11:38:58;;;;;;;6.90;5.60;;;30.70;50.10;30.00;96702.00;;;;4999222;28;20230;-88
2023/06/18 11:41:48;;;;;;;6.60;5.68;;;;;29.40;96635.00;;;;5005346;28;20209;-87
2023/06/18 11:44:46;;;;;;;5.68;4.95;;;;;30.60;96642.00;;;;5001518;28;20231;-88
2023/06/18 11:47:35;;;;;;;6.23;5.27;;;;;31.00;96640.00;;;;4998015;28;20208;-87
2023/06/18 11:50:28;;;;;;;6.23;5.60;;;;;32.80;96637.00;;;;5000358;28;20275;-86
2023/06/18 11:53:17;;;;;;;5.30;4.80;;;29.60;73.50;32.60;96640.00;;;;5003769;28;20229;-87
2023/06/18 11:56:06;;;;;;;6.78;5.30;;;29.60;57.70;33.90;96643.00;;;;4998894;28;20203;-88
2023/06/18 11:58:57;;;;;;;7.18;5.50;;;30.10;52.60;33.00;96633.00;;;;4996180;28;20230;-88
2023/06/18 12:01:46;;;;;;;7.00;5.85;;;30.40;51.60;34.60;96700.00;;;;5006430;28;20251;-88
2023/06/18 12:04:35;;;;;;;5.75;5.20;;;30.70;52.90;34.80;96687.00;;;;5004623;28;20217;-87
2023/06/18 12:07:26;;;;;;;6.10;5.40;;;30.90;53.10;35.30;96692.00;;;;4990016;28;20220;-88
2023/06/18 12:10:16;;;;;;;5.88;5.32;;;31.20;53.40;35.30;96642.00;;;;5001124;28;20683;-89
2023/06/18 12:13:17;;;;;;;7.28;5.50;;;31.60;52.90;33.30;96642.00;;;;4998775;28;20212;-89
2023/06/18 12:16:11;;;;;;;5.80;5.22;;;31.60;51.10;32.80;96631.00;;;;5008751;28;20280;-88
2023/06/18 12:19:03;;;;;;;6.32;5.40;;;31.20;51.10;32.60;96634.00;;;;5004536;28;20228;-87
2023/06/18 12:21:52;;;;;;;5.95;4.85;;;30.90;51.70;32.30;96633.00;;;;4997892;28;20216;-87
2023/06/18 12:24:43;;;;;;;6.78;6.10;;;30.40;50.10;32.00;96622.00;;;;5004217;28;20216;-89
2023/06/18 12:27:34;;;;;;;6.97;5.63;;;30.20;50.80;33.10;96621.00;;;;4999985;28;20195;-87
2023/06/18 12:30:29;;;;;;;5.50;4.82;;;30.40;52.30;33.50;96615.00;;;;5006170;28;20211;-89
2023/06/18 12:33:26;;;;;;;5.57;5.07;;;30.60;51.20;34.70;96625.00;;;;4998781;28;20217;-89
2023/06/18 12:36:15;;;;;;;6.13;5.25;;;30.90;51.40;35.80;96603.00;;;;5003184;28;20267;-87
2023/06/18 12:39:12;;;;;;;5.13;4.68;;;31.40;51.80;34.00;96608.00;;;;5010131;28;20261;-88
2023/06/18 12:42:03;;;;;;;6.13;5.18;;;31.60;50.60;33.90;96687.00;;;;5000436;28;20206;-87
2023/06/18 12:44:53;;;;;;;5.70;5.00;;;31.70;50.60;33.20;96618.00;;;;5002404;28;20690;-90
2023/06/18 12:47:45;;;;;;;7.28;5.22;;;31.20;51.20;31.90;96610.00;;;;5003277;28;20204;-88
2023/06/18 12:50:46;;;;;;;6.40;5.57;;;30.90;50.30;31.30;96617.00;;;;5002797;28;20196;-87
2023/06/18 12:53:35;;;;;;;9.07;5.45;;;30.30;51.90;31.80;96610.00;;;;5001139;28;20289;-88
2023/06/18 12:56:26;;;;;;;5.45;4.95;;;30.30;52.90;31.60;96616.00;;;;5001851;28;20202;-87
2023/06/18 12:59:18;;;;;;;7.00;5.65;;;30.10;50.20;32.90;96616.00;;;;5001638;28;20336;-89
2023/06/18 13:02:08;;;;;;;7.50;6.50;;;30.20;51.00;32.30;96616.00;;;;5001036;28;20310;-89
2023/06/18 13:05:00;;;;;;;7.97;4.80;;;30.30;50.40;33.00;96619.00;;;;5008082;28;20212;-88
2023/06/18 13:07:54;;;;;;;5.95;5.18;;;30.20;50.80;34.80;96615.00;;;;4991048;28;20201;-88
2023/06/18 13:10:45;;;;;;;6.25;5.13;;;30.70;52.30;35.70;96605.00;;;;5000204;28;20198;-89
2023/06/18 13:13:34;;;;;;;5.00;4.50;;;31.40;51.20;35.20;96612.00;;;;5003408;28;20252;-87
2023/06/18 13:16:24;;;;;;;7.63;4.88;;;32.00;51.40;36.00;96606.00;;;;5000480;28;20198;-87
2023/06/18 13:19:15;;;;;;;5.88;4.85;;;32.40;50.80;34.50;96607.00;;;;5008404;28;20240;-87
2023/06/18 13:22:04;;;;;;;5.70;4.80;;;32.50;49.40;34.90;96603.00;;;;5008042;28;20225;-87
2023/06/18 13:24:56;;;;;;;6.85;6.07;;;32.50;51.40;32.10;96593.00;;;;5007999;28;20206;-86
2023/06/18 13:27:45;;;;;;;5.00;4.50;;;31.80;48.20;32.30;96601.00;;;;5004830;28;20244;-88
2023/06/18 13:30:34;;;;;;;7.85;5.85;;;31.20;50.40;32.70;96604.00;;;;5005812;28;20205;-86
2023/06/18 13:33:25;;;;;;;6.25;5.70;;;31.00;50.20;32.10;96586.00;;;;5006141;28;20208;-87
2023/06/18 13:36:14;;;;;;;6.40;5.55;;;30.80;48.40;33.10;96587.00;;;;4998971;28;20209;-88
2023/06/18 13:39:03;;;;;;;4.82;4.43;;;30.80;48.30;35.30;96605.00;;;;5005945;28;20277;-90
2023/06/18 13:41:53;;;;;;;5.55;4.95;;;31.10;49.10;33.10;96602.00;;;;5008842;28;20207;-86
2023/06/18 13:44:43;;;;;;;8.52;5.00;;;31.10;48.60;33.10;96600.00;;;;5005889;28;20286;-91
2023/06/18 13:47:32;;;;;;;5.57;4.43;;;31.20;47.40;34.60;96606.00;;;;5000464;28;20202;-88